Time,TemperatureF,DewpointF,PressureIn,WindDirection,WindDirectionDegrees,WindSpeedMPH,WindSpeedGustMPH,Humidity,HourlyPrecipIn,Conditions,Clouds,dailyrainin,SoftwareType,DateUTC
2013-02-24 00:00:00,44.3,41.3,29.80,SW,225,0.0,0.4,89,0.00,,,0.08,WUHU216HW,2013-02-24 05:00:00,
2013-02-24 00:02:00,44.3,41.3,29.79,SW,225,0.0,0.4,89,0.00,,,0.00,WUHU216HW,2013-02-24 05:02:00,
2013-02-24 00:07:00,44.3,41.3,29.80,East,90,0.0,0.0,89,0.00,,,0.00,WUHU216HW,2013-02-24 05:07:00,
2013-02-24 00:12:00,44.3,41.3,29.80,South,180,0.0,0.0,89,0.00,,,0.00,WUHU216HW,2013-02-24 05:12:00,
2013-02-24 00:17:00,44.1,41.1,29.80,South,180,0.0,0.0,89,0.00,,,0.00,WUHU216HW,2013-02-24 05:17:00,
2013-02-24 00:22:00,44.1,41.1,29.80,SSW,203,0.0,0.0,89,0.00,,,0.00,WUHU216HW,2013-02-24 05:22:00,
2013-02-24 00:27:00,44.1,41.1,29.80,SE,135,0.0,0.0,89,0.00,,,0.00,WUHU216HW,2013-02-24 05:27:00,
2013-02-24 00:32:00,44.1,41.1,29.80,SSW,203,0.0,0.0,89,0.00,,,0.00,WUHU216HW,2013-02-24 05:32:00,
2013-02-24 00:37:00,44.1,41.1,29.80,ESE,113,0.9,0.9,89,0.00,,,0.00,WUHU216HW,2013-02-24 05:37:00,
2013-02-24 01:00:00,43.7,40.8,29.81,SE,135,1.1,1.1,89,0.00,,,0.00,WUHU216HW,2013-02-24 06:00:00,
2013-02-24 01:05:00,43.7,40.8,29.81,South,180,0.0,1.1,89,0.00,,,0.00,WUHU216HW,2013-02-24 06:05:00,
2013-02-24 01:10:00,43.7,40.8,29.81,SE,135,0.0,1.1,89,0.00,,,0.00,WUHU216HW,2013-02-24 06:10:00,
2013-02-24 01:15:00,43.6,40.6,29.81,SE,135,0.4,0.4,89,0.00,,,0.00,WUHU216HW,2013-02-24 06:15:00,
2013-02-24 01:20:00,43.6,40.6,29.81,ESE,113,0.7,0.7,89,0.00,,,0.00,WUHU216HW,2013-02-24 06:20:00,
2013-02-24 01:25:00,43.6,40.6,29.81,ESE,113,0.4,0.7,89,0.00,,,0.00,WUHU216HW,2013-02-24 06:25:00,
2013-02-24 01:31:00,43.6,40.6,29.81,South,180,0.0,0.7,89,0.00,,,0.00,WUHU216HW,2013-02-24 06:31:00,
2013-02-24 01:36:00,43.4,40.4,29.81,SW,225,0.0,0.4,89,0.00,,,0.00,WUHU216HW,2013-02-24 06:36:00,
2013-02-24 01:41:00,43.2,40.2,29.81,SE,135,0.4,0.4,89,0.00,,,0.00,WUHU216HW,2013-02-24 06:41:00,
2013-02-24 01:46:00,43.2,40.2,29.81,ESE,113,0.4,0.4,89,0.00,,,0.00,WUHU216HW,2013-02-24 06:46:00,
2013-02-24 01:51:00,43.0,40.1,29.81,ESE,113,0.7,0.7,89,0.00,,,0.00,WUHU216HW,2013-02-24 06:51:00,
2013-02-24 01:56:00,43.0,40.1,29.81,SSW,203,1.1,1.1,89,0.00,,,0.00,WUHU216HW,2013-02-24 06:56:00,
2013-02-24 02:01:00,42.8,39.9,29.80,SSE,158,0.0,1.1,89,0.00,,,0.00,WUHU216HW,2013-02-24 07:01:00,
2013-02-24 02:06:00,42.8,39.9,29.80,SSW,203,1.3,1.3,89,0.00,,,0.00,WUHU216HW,2013-02-24 07:06:00,
2013-02-24 02:11:00,42.8,39.9,29.80,NE,45,1.1,1.3,89,0.00,,,0.00,WUHU216HW,2013-02-24 07:11:00,
2013-02-24 02:17:00,42.8,39.9,29.80,SSW,203,1.1,1.1,89,0.00,,,0.00,WUHU216HW,2013-02-24 07:17:00,
2013-02-24 02:22:00,42.8,39.9,29.80,East,90,0.7,1.1,89,0.00,,,0.00,WUHU216HW,2013-02-24 07:22:00,
2013-02-24 02:27:00,42.7,39.7,29.80,ESE,113,1.3,1.3,89,0.00,,,0.00,WUHU216HW,2013-02-24 07:27:00,
2013-02-24 02:32:00,42.7,39.7,29.80,West,270,0.2,1.3,89,0.00,,,0.00,WUHU216HW,2013-02-24 07:32:00,
2013-02-24 02:37:00,42.5,39.5,29.80,SSE,158,0.2,1.3,89,0.00,,,0.00,WUHU216HW,2013-02-24 07:37:00,
2013-02-24 02:42:00,42.5,39.5,29.79,SE,135,0.4,0.4,89,0.00,,,0.00,WUHU216HW,2013-02-24 07:42:00,
2013-02-24 02:47:00,42.5,39.5,29.79,SSW,203,0.9,0.9,89,0.00,,,0.00,WUHU216HW,2013-02-24 07:47:00,
2013-02-24 02:52:00,42.3,39.3,29.79,SSW,203,0.4,1.1,89,0.00,,,0.00,WUHU216HW,2013-02-24 07:52:00,
2013-02-24 02:57:00,42.3,39.3,29.79,SE,135,0.4,1.1,89,0.00,,,0.00,WUHU216HW,2013-02-24 07:57:00,
2013-02-24 03:02:00,42.1,39.2,29.79,SSE,158,0.4,0.4,89,0.00,,,0.00,WUHU216HW,2013-02-24 08:02:00,
2013-02-24 03:07:00,42.1,39.2,29.79,SSE,158,0.7,0.7,89,0.00,,,0.00,WUHU216HW,2013-02-24 08:07:00,
2013-02-24 03:12:00,42.1,39.2,29.79,ESE,113,1.6,1.6,89,0.00,,,0.00,WUHU216HW,2013-02-24 08:12:00,
2013-02-24 03:18:00,42.1,39.2,29.79,SSE,158,1.6,1.6,89,0.00,,,0.00,WUHU216HW,2013-02-24 08:18:00,
2013-02-24 03:23:00,42.1,39.2,29.79,SE,135,0.2,1.6,89,0.00,,,0.00,WUHU216HW,2013-02-24 08:23:00,
2013-02-24 03:28:00,42.1,39.2,29.78,SE,135,0.7,1.3,89,0.00,,,0.00,WUHU216HW,2013-02-24 08:28:00,
2013-02-24 03:33:00,42.1,39.2,29.78,ESE,113,0.0,0.7,89,0.00,,,0.00,WUHU216HW,2013-02-24 08:33:00,
2013-02-24 03:38:00,41.9,39.0,29.78,ESE,113,0.0,0.7,89,0.00,,,0.00,WUHU216HW,2013-02-24 08:38:00,
2013-02-24 03:43:00,41.9,39.0,29.78,ESE,113,0.4,0.4,89,0.00,,,0.00,WUHU216HW,2013-02-24 08:43:00,
2013-02-24 03:48:00,41.9,39.0,29.78,East,90,0.2,1.3,89,0.00,,,0.00,WUHU216HW,2013-02-24 08:48:00,
2013-02-24 03:53:00,41.9,39.0,29.78,East,90,0.0,1.3,89,0.00,,,0.00,WUHU216HW,2013-02-24 08:53:00,
2013-02-24 03:59:00,41.9,39.0,29.78,East,90,0.2,0.2,89,0.00,,,0.00,WUHU216HW,2013-02-24 08:59:00,
2013-02-24 04:04:00,41.9,39.0,29.77,East,90,0.2,0.2,89,0.00,,,0.00,WUHU216HW,2013-02-24 09:04:00,
2013-02-24 04:09:00,41.9,39.0,29.77,East,90,0.0,0.2,89,0.00,,,0.00,WUHU216HW,2013-02-24 09:09:00,
2013-02-24 04:14:00,41.9,39.0,29.78,ESE,113,0.4,0.4,89,0.00,,,0.00,WUHU216HW,2013-02-24 09:14:00,
2013-02-24 04:19:00,41.9,39.0,29.78,ESE,113,1.1,1.1,89,0.00,,,0.00,WUHU216HW,2013-02-24 09:19:00,
2013-02-24 04:24:00,41.9,39.0,29.78,ESE,113,1.1,1.1,89,0.00,,,0.00,WUHU216HW,2013-02-24 09:24:00,
2013-02-24 04:48:00,41.9,39.2,29.78,SE,135,0.7,0.7,90,0.00,,,0.00,WUHU216HW,2013-02-24 09:48:00,
2013-02-24 04:53:00,41.9,39.2,29.78,SSE,158,1.1,1.1,90,0.00,,,0.00,WUHU216HW,2013-02-24 09:53:00,
2013-02-24 04:58:00,41.9,39.2,29.79,SSE,158,0.0,1.1,90,0.00,,,0.00,WUHU216HW,2013-02-24 09:58:00,
2013-02-24 05:03:00,41.9,39.2,29.79,SSE,158,1.8,1.8,90,0.00,,,0.00,WUHU216HW,2013-02-24 10:03:00,
2013-02-24 05:09:00,42.1,39.4,29.79,SE,135,0.4,1.8,90,0.00,,,0.00,WUHU216HW,2013-02-24 10:09:00,
2013-02-24 05:14:00,42.1,39.4,29.80,ESE,113,0.2,1.8,90,0.00,,,0.00,WUHU216HW,2013-02-24 10:14:00,
2013-02-24 05:19:00,42.1,39.4,29.80,SE,135,1.3,1.3,90,0.00,,,0.00,WUHU216HW,2013-02-24 10:19:00,
2013-02-24 05:24:00,42.1,39.4,29.80,SE,135,1.1,1.3,90,0.00,,,0.00,WUHU216HW,2013-02-24 10:24:00,
2013-02-24 05:29:00,42.1,39.4,29.80,SE,135,1.1,2.0,90,0.00,,,0.00,WUHU216HW,2013-02-24 10:29:00,
2013-02-24 05:34:00,42.1,39.4,29.80,East,90,0.2,2.0,90,0.00,,,0.00,WUHU216HW,2013-02-24 10:34:00,
2013-02-24 05:39:00,42.1,39.4,29.80,ESE,113,0.7,1.1,90,0.00,,,0.00,WUHU216HW,2013-02-24 10:39:00,
2013-02-24 05:45:00,42.1,39.4,29.81,SSE,158,0.4,0.7,90,0.00,,,0.00,WUHU216HW,2013-02-24 10:45:00,
2013-02-24 05:50:00,42.1,39.4,29.81,East,90,0.0,0.7,90,0.00,,,0.00,WUHU216HW,2013-02-24 10:50:00,
2013-02-24 05:55:00,42.1,39.4,29.81,East,90,0.0,0.4,90,0.00,,,0.00,WUHU216HW,2013-02-24 10:55:00,
2013-02-24 06:00:00,41.9,39.2,29.81,ESE,113,0.4,1.1,90,0.00,,,0.00,WUHU216HW,2013-02-24 11:00:00,
2013-02-24 06:05:00,41.9,39.2,29.81,SW,225,0.2,1.1,90,0.00,,,0.00,WUHU216HW,2013-02-24 11:05:00,
2013-02-24 06:10:00,41.9,39.2,29.81,ESE,113,0.4,0.4,90,0.00,,,0.00,WUHU216HW,2013-02-24 11:10:00,
2013-02-24 06:15:00,41.9,39.2,29.82,ESE,113,0.4,0.4,90,0.00,,,0.00,WUHU216HW,2013-02-24 11:15:00,
2013-02-24 06:20:00,42.1,39.4,29.82,ENE,68,0.2,0.4,90,0.00,,,0.00,WUHU216HW,2013-02-24 11:20:00,
2013-02-24 06:26:00,41.9,39.2,29.82,SE,135,0.0,0.4,90,0.00,,,0.00,WUHU216HW,2013-02-24 11:26:00,
2013-02-24 06:31:00,41.9,39.2,29.82,East,90,0.0,0.2,90,0.00,,,0.00,WUHU216HW,2013-02-24 11:31:00,
2013-02-24 06:36:00,41.9,39.2,29.82,East,90,0.4,0.4,90,0.00,,,0.00,WUHU216HW,2013-02-24 11:36:00,
2013-02-24 06:41:00,42.1,39.4,29.82,South,180,0.9,0.9,90,0.00,,,0.00,WUHU216HW,2013-02-24 11:41:00,
2013-02-24 06:46:00,41.9,39.2,29.82,SE,135,0.0,0.9,90,0.00,,,0.00,WUHU216HW,2013-02-24 11:46:00,
2013-02-24 06:51:00,41.9,39.2,29.82,SE,135,0.0,0.9,90,0.00,,,0.00,WUHU216HW,2013-02-24 11:51:00,
2013-02-24 06:56:00,41.9,39.2,29.83,East,90,0.4,0.7,90,0.00,,,0.00,WUHU216HW,2013-02-24 11:56:00,
2013-02-24 07:01:00,41.9,39.2,29.83,SE,135,0.2,0.7,90,0.00,,,0.00,WUHU216HW,2013-02-24 12:01:00,
2013-02-24 07:06:00,41.9,39.2,29.83,East,90,0.0,0.4,90,0.00,,,0.00,WUHU216HW,2013-02-24 12:06:00,
2013-02-24 07:12:00,41.9,39.2,29.83,East,90,0.0,0.2,90,0.00,,,0.00,WUHU216HW,2013-02-24 12:12:00,
2013-02-24 07:17:00,41.9,39.2,29.84,SE,135,0.0,0.2,90,0.00,,,0.00,WUHU216HW,2013-02-24 12:17:00,
2013-02-24 07:22:00,41.9,39.2,29.83,SW,225,0.0,0.0,90,0.00,,,0.00,WUHU216HW,2013-02-24 12:22:00,
2013-02-24 07:27:00,41.6,38.9,29.83,SSE,158,0.0,0.0,90,0.00,,,0.00,WUHU216HW,2013-02-24 12:27:00,
2013-02-24 07:32:00,41.6,38.9,29.83,SSW,203,0.0,0.0,90,0.00,,,0.00,WUHU216HW,2013-02-24 12:32:00,
2013-02-24 07:37:00,41.4,38.7,29.83,South,180,0.7,0.7,90,0.00,,,0.00,WUHU216HW,2013-02-24 12:37:00,
2013-02-24 07:42:00,41.2,38.5,29.83,SSE,158,0.0,0.7,90,0.00,,,0.00,WUHU216HW,2013-02-24 12:42:00,
2013-02-24 07:47:00,41.4,38.7,29.83,SE,135,0.0,0.7,90,0.00,,,0.00,WUHU216HW,2013-02-24 12:47:00,
2013-02-24 07:53:00,41.6,38.9,29.83,ESE,113,0.4,0.4,90,0.00,,,0.00,WUHU216HW,2013-02-24 12:53:00,
2013-02-24 07:58:00,41.8,39.1,29.83,West,270,0.4,0.4,90,0.00,,,0.00,WUHU216HW,2013-02-24 12:58:00,
2013-02-24 08:03:00,41.9,39.2,29.84,SSE,158,0.2,0.4,90,0.00,,,0.00,WUHU216HW,2013-02-24 13:03:00,
2013-02-24 08:08:00,42.1,39.4,29.84,South,180,0.0,0.4,90,0.00,,,0.00,WUHU216HW,2013-02-24 13:08:00,
2013-02-24 08:13:00,42.1,39.2,29.84,ESE,113,0.2,0.2,89,0.00,,,0.00,WUHU216HW,2013-02-24 13:13:00,
2013-02-24 08:18:00,42.7,39.7,29.84,SSE,158,0.4,1.3,89,0.00,,,0.00,WUHU216HW,2013-02-24 13:18:00,
2013-02-24 08:23:00,42.8,39.9,29.83,SSE,158,1.8,1.8,89,0.00,,,0.00,WUHU216HW,2013-02-24 13:23:00,
2013-02-24 08:28:00,43.0,39.7,29.84,East,90,0.9,1.8,88,0.00,,,0.00,WUHU216HW,2013-02-24 13:28:00,
2013-02-24 08:33:00,43.9,40.6,29.85,ESE,113,0.0,1.8,88,0.00,,,0.00,WUHU216HW,2013-02-24 13:33:00,
2013-02-24 08:38:00,44.5,41.1,29.85,South,180,0.0,0.2,88,0.00,,,0.00,WUHU216HW,2013-02-24 13:38:00,
2013-02-24 08:44:00,45.0,41.7,29.85,SW,225,0.2,0.2,88,0.00,,,0.00,WUHU216HW,2013-02-24 13:44:00,
2013-02-24 08:49:00,45.9,41.7,29.85,SSE,158,0.4,1.8,85,0.00,,,0.00,WUHU216HW,2013-02-24 13:49:00,
2013-02-24 08:54:00,46.4,41.6,29.85,SE,135,1.1,1.8,83,0.00,,,0.00,WUHU216HW,2013-02-24 13:54:00,
2013-02-24 08:59:00,47.3,42.1,29.85,SSW,203,1.6,1.8,82,0.00,,,0.00,WUHU216HW,2013-02-24 13:59:00,
2013-02-24 09:04:00,47.7,42.1,29.85,South,180,0.0,1.8,81,0.00,,,0.00,WUHU216HW,2013-02-24 14:04:00,
2013-02-24 09:09:00,48.2,42.3,29.85,East,90,2.9,2.9,80,0.00,,,0.00,WUHU216HW,2013-02-24 14:09:00,
2013-02-24 09:14:00,48.6,42.3,29.85,SW,225,0.4,2.9,79,0.00,,,0.00,WUHU216HW,2013-02-24 14:14:00,
2013-02-24 09:19:00,48.8,42.1,29.86,SSE,158,0.4,2.7,78,0.00,,,0.00,WUHU216HW,2013-02-24 14:19:00,
2013-02-24 09:24:00,48.8,41.1,29.86,East,90,0.0,3.1,75,0.00,,,0.00,WUHU216HW,2013-02-24 14:24:00,
2013-02-24 09:29:00,49.0,41.3,29.86,ENE,68,2.0,3.1,75,0.00,,,0.00,WUHU216HW,2013-02-24 14:29:00,
2013-02-24 09:34:00,49.1,41.5,29.86,ENE,68,0.0,2.0,75,0.00,,,0.00,WUHU216HW,2013-02-24 14:34:00,
2013-02-24 09:39:00,48.8,40.2,29.86,WSW,248,3.1,3.1,72,0.00,,,0.00,WUHU216HW,2013-02-24 14:39:00,
2013-02-24 09:44:00,48.8,40.2,29.86,SW,225,1.1,3.1,72,0.00,,,0.00,WUHU216HW,2013-02-24 14:44:00,
2013-02-24 09:49:00,48.8,39.8,29.87,ESE,113,1.8,3.1,71,0.00,,,0.00,WUHU216HW,2013-02-24 14:49:00,
2013-02-24 09:55:00,48.2,38.9,29.86,South,180,1.8,7.4,70,0.00,,,0.00,WUHU216HW,2013-02-24 14:55:00,
2013-02-24 10:00:00,47.9,37.8,29.86,ESE,113,3.4,7.4,68,0.00,,,0.00,WUHU216HW,2013-02-24 15:00:00,
2013-02-24 10:05:00,47.5,36.7,29.86,SSE,158,2.5,3.4,66,0.00,,,0.00,WUHU216HW,2013-02-24 15:05:00,
2013-02-24 10:10:00,47.9,37.8,29.86,ESE,113,5.4,5.4,68,0.00,,,0.00,WUHU216HW,2013-02-24 15:10:00,
2013-02-24 10:15:00,48.2,37.4,29.86,NNE,23,3.1,5.4,66,0.00,,,0.00,WUHU216HW,2013-02-24 15:15:00,
2013-02-24 10:20:00,48.6,37.7,29.87,ESE,113,1.6,5.4,66,0.00,,,0.00,WUHU216HW,2013-02-24 15:20:00,
2013-02-24 10:25:00,49.1,38.3,29.86,SE,135,3.6,3.8,66,0.00,,,0.00,WUHU216HW,2013-02-24 15:25:00,
2013-02-24 10:30:00,49.3,38.0,29.86,SSW,203,2.2,3.6,65,0.00,,,0.00,WUHU216HW,2013-02-24 15:30:00,
2013-02-24 10:35:00,49.3,37.3,29.87,ENE,68,1.1,3.6,63,0.00,,,0.00,WUHU216HW,2013-02-24 15:35:00,
2013-02-24 10:40:00,49.5,36.3,29.87,SSW,203,3.1,3.1,60,0.00,,,0.00,WUHU216HW,2013-02-24 15:40:00,
2013-02-24 10:46:00,49.5,37.0,29.86,SSW,203,2.5,3.1,62,0.00,,,0.00,WUHU216HW,2013-02-24 15:46:00,
2013-02-24 10:51:00,49.9,37.0,29.87,SSE,158,4.7,4.7,61,0.00,,,0.00,WUHU216HW,2013-02-24 15:51:00,
2013-02-24 10:56:00,49.3,36.8,29.87,ESE,113,1.1,4.7,62,0.00,,,0.00,WUHU216HW,2013-02-24 15:56:00,
2013-02-24 11:01:00,49.3,36.8,29.87,ENE,68,3.4,4.7,62,0.00,,,0.00,WUHU216HW,2013-02-24 16:01:00,
2013-02-24 11:06:00,48.4,35.6,29.87,SSE,158,1.8,3.6,61,0.00,,,0.00,WUHU216HW,2013-02-24 16:06:00,
2013-02-24 11:11:00,48.6,35.8,29.86,ESE,113,1.6,3.6,61,0.00,,,0.00,WUHU216HW,2013-02-24 16:11:00,
2013-02-24 11:16:00,49.0,35.7,29.87,SSE,158,1.1,1.8,60,0.00,,,0.00,WUHU216HW,2013-02-24 16:16:00,
2013-02-24 11:21:00,49.5,35.8,29.87,SW,225,3.6,4.0,59,0.00,,,0.00,WUHU216HW,2013-02-24 16:21:00,
2013-02-24 11:26:00,49.7,35.5,29.87,ENE,68,2.7,4.0,58,0.00,,,0.00,WUHU216HW,2013-02-24 16:26:00,
2013-02-24 11:31:00,50.0,35.8,29.87,NE,45,2.5,3.6,58,0.00,,,0.00,WUHU216HW,2013-02-24 16:31:00,
2013-02-24 11:37:00,50.8,35.6,29.87,South,180,2.5,3.4,56,0.00,,,0.00,WUHU216HW,2013-02-24 16:37:00,
2013-02-24 11:42:00,50.9,36.6,29.87,WSW,248,1.3,3.4,58,0.00,,,0.00,WUHU216HW,2013-02-24 16:42:00,
2013-02-24 11:47:00,50.9,36.2,29.87,SSE,158,5.6,5.6,57,0.00,,,0.00,WUHU216HW,2013-02-24 16:47:00,
2013-02-24 11:52:00,50.4,34.8,29.87,ESE,113,1.1,5.6,55,0.00,,,0.00,WUHU216HW,2013-02-24 16:52:00,
2013-02-24 11:57:00,49.9,34.7,29.87,West,270,1.1,5.6,56,0.00,,,0.00,WUHU216HW,2013-02-24 16:57:00,
2013-02-24 12:02:00,49.5,33.9,29.86,SE,135,3.6,3.6,55,0.00,,,0.00,WUHU216HW,2013-02-24 17:02:00,
2013-02-24 12:07:00,49.9,33.8,29.86,NW,315,1.1,3.6,54,0.00,,,0.00,WUHU216HW,2013-02-24 17:07:00,
2013-02-24 12:12:00,50.0,34.5,29.86,South,180,2.2,2.2,55,0.00,,,0.00,WUHU216HW,2013-02-24 17:12:00,
2013-02-24 12:17:00,50.0,34.0,29.86,NE,45,1.6,2.2,54,0.00,,,0.00,WUHU216HW,2013-02-24 17:17:00,
2013-02-24 12:22:00,50.4,33.9,29.86,NE,45,0.9,2.7,53,0.00,,,0.00,WUHU216HW,2013-02-24 17:22:00,
2013-02-24 12:27:00,50.6,34.5,29.85,SE,135,1.1,2.7,54,0.00,,,0.00,WUHU216HW,2013-02-24 17:27:00,
2013-02-24 12:32:00,50.8,34.2,29.85,SSE,158,2.5,2.5,53,0.00,,,0.00,WUHU216HW,2013-02-24 17:32:00,
2013-02-24 12:37:00,50.9,33.9,29.85,ESE,113,3.4,3.4,52,0.00,,,0.00,WUHU216HW,2013-02-24 17:37:00,
2013-02-24 12:42:00,50.8,32.3,29.85,ESE,113,4.7,4.7,49,0.00,,,0.00,WUHU216HW,2013-02-24 17:42:00,
2013-02-24 12:47:00,50.8,32.3,29.85,West,270,2.5,4.7,49,0.00,,,0.00,WUHU216HW,2013-02-24 17:47:00,
2013-02-24 12:52:00,50.8,32.3,29.85,SSW,203,2.7,4.7,49,0.00,,,0.00,WUHU216HW,2013-02-24 17:52:00,
2013-02-24 12:58:00,50.6,31.1,29.85,ESE,113,4.9,4.9,47,0.00,,,0.00,WUHU216HW,2013-02-24 17:58:00,
2013-02-24 13:03:00,50.6,31.6,29.84,SSW,203,5.4,5.4,48,0.00,,,0.00,WUHU216HW,2013-02-24 18:03:00,
2013-02-24 13:08:00,50.8,31.8,29.85,ESE,113,2.0,5.4,48,0.00,,,0.00,WUHU216HW,2013-02-24 18:08:00,
2013-02-24 13:13:00,50.8,31.8,29.85,ESE,113,2.0,2.0,48,0.00,,,0.00,WUHU216HW,2013-02-24 18:13:00,
2013-02-24 13:35:00,51.8,33.3,29.84,West,270,0.4,0.4,49,0.00,,,0.00,WUHU216HW,2013-02-24 18:35:00,
2013-02-24 13:40:00,51.7,32.1,29.84,ENE,68,1.8,1.8,47,0.00,,,0.00,WUHU216HW,2013-02-24 18:40:00,
2013-02-24 13:45:00,51.7,32.1,29.84,ENE,68,1.8,1.8,47,0.00,,,0.00,WUHU216HW,2013-02-24 18:45:00,
2013-02-24 14:00:00,51.7,30.3,29.84,SSE,158,4.5,4.5,44,0.00,,,0.00,WUHU216HW,2013-02-24 19:00:00,
2013-02-24 14:05:00,51.7,30.9,29.84,East,90,1.8,4.5,45,0.00,,,0.00,WUHU216HW,2013-02-24 19:05:00,
2013-02-24 14:10:00,51.7,30.9,29.84,SE,135,1.3,4.5,45,0.00,,,0.00,WUHU216HW,2013-02-24 19:10:00,
2013-02-24 14:15:00,52.0,31.8,29.84,NNW,338,0.9,2.0,46,0.00,,,0.00,WUHU216HW,2013-02-24 19:15:00,
2013-02-24 14:20:00,52.2,31.4,29.84,SSW,203,2.7,2.7,45,0.00,,,0.00,WUHU216HW,2013-02-24 19:20:00,
2013-02-24 14:25:00,52.4,31.5,29.84,West,270,0.9,4.3,45,0.00,,,0.00,WUHU216HW,2013-02-24 19:25:00,
2013-02-24 14:30:00,52.2,30.8,29.83,SW,225,2.5,4.3,44,0.00,,,0.00,WUHU216HW,2013-02-24 19:30:00,
2013-02-24 14:35:00,52.0,30.7,29.84,ESE,113,2.0,4.3,44,0.00,,,0.00,WUHU216HW,2013-02-24 19:35:00,
2013-02-24 14:40:00,52.0,30.7,29.84,SW,225,1.6,2.5,44,0.00,,,0.00,WUHU216HW,2013-02-24 19:40:00,
2013-02-24 14:45:00,52.0,29.5,29.84,ESE,113,3.4,4.0,42,0.00,,,0.00,WUHU216HW,2013-02-24 19:45:00,
2013-02-24 14:50:00,52.0,29.5,29.84,WSW,248,4.0,4.0,42,0.00,,,0.00,WUHU216HW,2013-02-24 19:50:00,
2013-02-24 14:56:00,52.0,30.1,29.84,South,180,1.3,4.0,43,0.00,,,0.00,WUHU216HW,2013-02-24 19:56:00,
2013-02-24 15:01:00,52.2,30.8,29.84,SE,135,1.1,4.0,44,0.00,,,0.00,WUHU216HW,2013-02-24 20:01:00,
2013-02-24 15:06:00,52.9,32.1,29.84,West,270,0.4,4.7,45,0.00,,,0.00,WUHU216HW,2013-02-24 20:06:00,
2013-02-24 15:11:00,52.9,32.1,29.84,ESE,113,1.1,4.7,45,0.00,,,0.00,WUHU216HW,2013-02-24 20:11:00,
2013-02-24 15:16:00,52.9,32.1,29.84,ENE,68,1.3,1.3,45,0.00,,,0.00,WUHU216HW,2013-02-24 20:16:00,
2013-02-24 15:21:00,52.6,31.1,29.85,SE,135,2.5,3.8,44,0.00,,,0.00,WUHU216HW,2013-02-24 20:21:00,
2013-02-24 15:26:00,52.4,29.9,29.85,SSW,203,3.1,3.8,42,0.00,,,0.00,WUHU216HW,2013-02-24 20:26:00,
2013-02-24 15:31:00,52.2,29.7,29.85,ESE,113,1.8,3.1,42,0.00,,,0.00,WUHU216HW,2013-02-24 20:31:00,
2013-02-24 15:36:00,52.6,31.1,29.85,ENE,68,0.4,3.1,44,0.00,,,0.00,WUHU216HW,2013-02-24 20:36:00,
2013-02-24 15:41:00,53.6,30.4,29.85,SE,135,3.4,3.4,41,0.00,,,0.00,WUHU216HW,2013-02-24 20:41:00,
2013-02-24 15:47:00,54.0,31.3,29.86,ENE,68,1.8,3.4,42,0.00,,,0.00,WUHU216HW,2013-02-24 20:47:00,
2013-02-24 15:52:00,54.2,30.3,29.86,ESE,113,2.0,3.4,40,0.00,,,0.00,WUHU216HW,2013-02-24 20:52:00,
2013-02-24 15:57:00,54.4,31.1,29.86,ESE,113,1.8,2.0,41,0.00,,,0.00,WUHU216HW,2013-02-24 20:57:00,
2013-02-24 16:02:00,54.7,30.9,29.86,East,90,2.9,2.9,40,0.00,,,0.00,WUHU216HW,2013-02-24 21:02:00,
2013-02-24 16:07:00,54.9,31.1,29.86,WNW,293,0.9,2.9,40,0.00,,,0.00,WUHU216HW,2013-02-24 21:07:00,
2013-02-24 16:12:00,54.0,30.8,29.86,East,90,1.3,1.3,41,0.00,,,0.00,WUHU216HW,2013-02-24 21:12:00,
2013-02-24 16:17:00,51.7,28.6,29.87,SSE,158,2.0,3.4,41,0.00,,,0.00,WUHU216HW,2013-02-24 21:17:00,
2013-02-24 16:22:00,51.3,28.9,29.87,SSE,158,2.2,3.4,42,0.00,,,0.00,WUHU216HW,2013-02-24 21:22:00,
2013-02-24 16:27:00,50.9,28.5,29.87,WSW,248,2.9,2.9,42,0.00,,,0.00,WUHU216HW,2013-02-24 21:27:00,
2013-02-24 16:32:00,50.6,28.8,29.87,ESE,113,1.8,2.9,43,0.00,,,0.00,WUHU216HW,2013-02-24 21:32:00,
2013-02-24 16:37:00,50.2,27.9,29.88,WNW,293,4.3,4.3,42,0.00,,,0.00,WUHU216HW,2013-02-24 21:37:00,
2013-02-24 16:42:00,50.0,27.7,29.88,NNE,23,2.9,4.3,42,0.00,,,0.00,WUHU216HW,2013-02-24 21:42:00,
2013-02-24 16:47:00,49.7,27.5,29.88,NNW,338,0.9,4.3,42,0.00,,,0.00,WUHU216HW,2013-02-24 21:47:00,
2013-02-24 16:53:00,49.3,27.6,29.89,South,180,1.6,3.4,43,0.00,,,0.00,WUHU216HW,2013-02-24 21:53:00,
2013-02-24 16:58:00,49.3,28.2,29.90,SSE,158,2.7,2.7,44,0.00,,,0.00,WUHU216HW,2013-02-24 21:58:00,
2013-02-24 17:03:00,48.2,27.7,29.91,SE,135,1.8,2.7,45,0.00,,,0.00,WUHU216HW,2013-02-24 22:03:00,
2013-02-24 17:08:00,47.7,27.8,29.91,ESE,113,3.6,3.6,46,0.00,,,0.00,WUHU216HW,2013-02-24 22:08:00,
2013-02-24 17:13:00,47.2,27.3,29.91,SSW,203,5.6,5.6,46,0.00,,,0.00,WUHU216HW,2013-02-24 22:13:00,
2013-02-24 17:18:00,46.6,27.4,29.92,SE,135,3.4,5.6,47,0.00,,,0.00,WUHU216HW,2013-02-24 22:18:00,
2013-02-24 17:23:00,45.7,27.1,29.92,NNE,23,1.8,5.6,48,0.00,,,0.00,WUHU216HW,2013-02-24 22:23:00,
2013-02-24 17:28:00,45.4,27.3,29.93,SE,135,1.3,4.5,49,0.00,,,0.00,WUHU216HW,2013-02-24 22:28:00,
2013-02-24 17:33:00,45.0,27.0,29.93,East,90,2.0,4.5,49,0.00,,,0.00,WUHU216HW,2013-02-24 22:33:00,
2013-02-24 17:39:00,44.5,27.0,29.93,ESE,113,2.7,2.7,50,0.00,,,0.00,WUHU216HW,2013-02-24 22:39:00,
2013-02-24 17:44:00,44.1,26.7,29.93,ESE,113,3.6,3.6,50,0.00,,,0.00,WUHU216HW,2013-02-24 22:44:00,
2013-02-24 17:49:00,43.2,26.7,29.94,WNW,293,3.6,5.1,52,0.00,,,0.00,WUHU216HW,2013-02-24 22:49:00,
2013-02-24 17:54:00,42.8,26.5,29.94,East,90,2.0,5.1,52,0.00,,,0.00,WUHU216HW,2013-02-24 22:54:00,
2013-02-24 17:59:00,42.5,26.6,29.95,WSW,248,4.5,4.5,53,0.00,,,0.00,WUHU216HW,2013-02-24 22:59:00,
2013-02-24 18:04:00,42.1,25.8,29.96,SE,135,3.1,4.5,52,0.00,,,0.00,WUHU216HW,2013-02-24 23:04:00,
2013-02-24 18:09:00,41.6,25.2,29.96,ENE,68,4.3,4.9,52,0.00,,,0.00,WUHU216HW,2013-02-24 23:09:00,
2013-02-24 18:11:00,41.4,25.0,29.96,SE,135,2.5,2.5,52,0.00,,,0.00,WUHU216HW,2013-02-24 23:11:00,
2013-02-24 18:14:00,41.4,25.0,29.96,SE,135,2.5,4.9,52,0.00,,,0.00,WUHU216HW,2013-02-24 23:14:00,
2013-02-24 18:19:00,41.4,25.0,29.96,SE,135,2.5,3.4,52,0.00,,,0.00,WUHU216HW,2013-02-24 23:19:00,
2013-02-24 18:41:00,39.8,24.9,29.98,SSE,158,3.4,3.4,55,0.00,,,0.00,WUHU216HW,2013-02-24 23:41:00,
2013-02-24 18:46:00,39.8,24.9,29.98,SSE,158,3.4,3.4,55,0.00,,,0.00,WUHU216HW,2013-02-24 23:46:00,
2013-02-24 19:00:00,39.1,24.6,29.99,SE,135,5.1,5.1,56,0.00,,,0.00,WUHU216HW,2013-02-25 00:00:00,
2013-02-24 19:05:00,38.9,24.8,30.00,WSW,248,3.1,5.1,57,0.00,,,0.00,WUHU216HW,2013-02-25 00:05:00,
2013-02-24 19:10:00,38.7,25.1,30.00,SSW,203,5.8,5.8,58,0.00,,,0.00,WUHU216HW,2013-02-25 00:10:00,
2013-02-24 19:15:00,38.5,24.9,30.00,South,180,1.3,5.8,58,0.00,,,0.00,WUHU216HW,2013-02-25 00:15:00,
2013-02-24 19:20:00,38.3,25.2,30.00,WSW,248,2.5,3.8,59,0.00,,,0.00,WUHU216HW,2013-02-25 00:20:00,
2013-02-24 19:25:00,38.2,25.0,30.00,SSW,203,1.6,5.6,59,0.00,,,0.00,WUHU216HW,2013-02-25 00:25:00,
2013-02-24 19:31:00,38.0,24.9,30.02,SW,225,2.5,5.6,59,0.00,,,0.00,WUHU216HW,2013-02-25 00:31:00,
2013-02-24 19:35:00,37.8,25.2,30.02,ESE,113,1.8,3.8,60,0.00,,,0.00,WUHU216HW,2013-02-25 00:35:00,
2013-02-24 19:41:00,37.8,25.2,30.03,SSE,158,3.1,3.8,60,0.00,,,0.00,WUHU216HW,2013-02-25 00:41:00,
2013-02-24 19:46:00,37.6,25.0,30.03,ESE,113,2.5,3.1,60,0.00,,,0.00,WUHU216HW,2013-02-25 00:46:00,
2013-02-24 19:51:00,37.4,24.8,30.04,ENE,68,2.5,3.1,60,0.00,,,0.00,WUHU216HW,2013-02-25 00:51:00,
2013-02-24 19:56:00,37.3,24.7,30.04,ESE,113,0.9,7.2,60,0.00,,,0.00,WUHU216HW,2013-02-25 00:56:00,
2013-02-24 20:01:00,37.3,24.7,30.05,East,90,1.1,7.2,60,0.00,,,0.00,WUHU216HW,2013-02-25 01:01:00,
2013-02-24 20:06:00,37.3,24.7,30.05,SSE,158,1.8,3.6,60,0.00,,,0.00,WUHU216HW,2013-02-25 01:06:00,
2013-02-24 20:11:00,37.1,24.5,30.05,SSE,158,0.7,3.1,60,0.00,,,0.00,WUHU216HW,2013-02-25 01:11:00,
2013-02-24 20:16:00,36.9,24.0,30.05,ENE,68,1.1,3.8,59,0.00,,,0.00,WUHU216HW,2013-02-25 01:16:00,
2013-02-24 20:21:00,36.9,24.0,30.05,SE,135,1.1,3.8,59,0.00,,,0.00,WUHU216HW,2013-02-25 01:21:00,
2013-02-24 20:26:00,36.7,23.8,30.06,West,270,1.6,5.4,59,0.00,,,0.00,WUHU216HW,2013-02-25 01:26:00,
2013-02-24 20:31:00,36.9,23.5,30.05,East,90,1.6,5.4,58,0.00,,,0.00,WUHU216HW,2013-02-25 01:31:00,
2013-02-24 20:36:00,36.7,23.3,30.06,ESE,113,2.0,4.7,58,0.00,,,0.00,WUHU216HW,2013-02-25 01:36:00,
2013-02-24 20:42:00,36.7,23.3,30.06,ENE,68,1.3,2.5,58,0.00,,,0.00,WUHU216HW,2013-02-25 01:42:00,
2013-02-24 20:47:00,36.5,23.1,30.07,SE,135,2.7,4.0,58,0.00,,,0.00,WUHU216HW,2013-02-25 01:47:00,
2013-02-24 20:52:00,36.5,22.8,30.07,South,180,0.4,4.0,57,0.00,,,0.00,WUHU216HW,2013-02-25 01:52:00,
2013-02-24 20:57:00,36.4,23.1,30.07,SSE,158,1.8,2.5,58,0.00,,,0.00,WUHU216HW,2013-02-25 01:57:00,
2013-02-24 21:02:00,36.4,23.1,30.07,WSW,248,2.5,2.7,58,0.00,,,0.00,WUHU216HW,2013-02-25 02:02:00,
2013-02-24 21:07:00,36.4,22.6,30.07,ESE,113,1.6,2.7,57,0.00,,,0.00,WUHU216HW,2013-02-25 02:07:00,
2013-02-24 21:12:00,36.2,22.9,30.07,SSE,158,2.5,2.5,58,0.00,,,0.00,WUHU216HW,2013-02-25 02:12:00,
2013-02-24 21:17:00,36.0,22.7,30.08,ESE,113,2.5,3.4,58,0.00,,,0.00,WUHU216HW,2013-02-25 02:17:00,
2013-02-24 21:22:00,36.0,22.7,30.09,SE,135,1.3,3.4,58,0.00,,,0.00,WUHU216HW,2013-02-25 02:22:00,
2013-02-24 21:27:00,35.8,22.5,30.09,ESE,113,1.6,1.8,58,0.00,,,0.00,WUHU216HW,2013-02-25 02:27:00,
2013-02-24 21:32:00,35.6,22.3,30.08,SE,135,3.6,3.6,58,0.00,,,0.00,WUHU216HW,2013-02-25 02:32:00,
2013-02-24 21:38:00,35.6,22.3,30.08,ESE,113,1.3,3.6,58,0.00,,,0.00,WUHU216HW,2013-02-25 02:38:00,
2013-02-24 21:42:00,35.6,22.3,30.08,SE,135,1.3,1.6,58,0.00,,,0.00,WUHU216HW,2013-02-25 02:42:00,
2013-02-24 21:48:00,35.5,22.1,30.09,ENE,68,0.4,1.6,58,0.00,,,0.00,WUHU216HW,2013-02-25 02:48:00,
2013-02-24 21:53:00,35.5,22.1,30.09,WNW,293,2.0,3.1,58,0.00,,,0.00,WUHU216HW,2013-02-25 02:53:00,
2013-02-24 21:58:00,35.5,21.8,30.09,ENE,68,2.7,3.4,57,0.00,,,0.00,WUHU216HW,2013-02-25 02:58:00,
2013-02-24 22:03:00,35.3,22.0,30.09,East,90,0.9,3.4,58,0.00,,,0.00,WUHU216HW,2013-02-25 03:03:00,
2013-02-24 22:08:00,35.1,21.4,30.09,SW,225,3.4,5.4,57,0.00,,,0.00,WUHU216HW,2013-02-25 03:08:00,
2013-02-24 22:13:00,35.1,21.4,30.09,SSW,203,1.3,5.4,57,0.00,,,0.00,WUHU216HW,2013-02-25 03:13:00,
2013-02-24 22:18:00,35.1,21.4,30.09,SW,225,1.6,3.6,57,0.00,,,0.00,WUHU216HW,2013-02-25 03:18:00,
2013-02-24 22:23:00,34.9,21.3,30.09,SW,225,0.4,2.9,57,0.00,,,0.00,WUHU216HW,2013-02-25 03:23:00,
2013-02-24 22:29:00,34.9,20.8,30.09,SE,135,1.1,2.9,56,0.00,,,0.00,WUHU216HW,2013-02-25 03:29:00,
2013-02-24 22:34:00,34.7,20.6,30.09,ESE,113,2.2,2.7,56,0.00,,,0.00,WUHU216HW,2013-02-25 03:34:00,
2013-02-24 22:39:00,34.7,20.6,30.09,SE,135,2.9,2.9,56,0.00,,,0.00,WUHU216HW,2013-02-25 03:39:00,
2013-02-24 22:44:00,34.7,20.6,30.08,WSW,248,1.3,2.9,56,0.00,,,0.00,WUHU216HW,2013-02-25 03:44:00,
2013-02-24 22:49:00,34.6,20.4,30.08,ESE,113,1.6,4.0,56,0.00,,,0.00,WUHU216HW,2013-02-25 03:49:00,
2013-02-24 22:54:00,34.6,20.4,30.08,NE,45,1.3,4.7,56,0.00,,,0.00,WUHU216HW,2013-02-25 03:54:00,
2013-02-24 22:59:00,34.4,20.3,30.08,East,90,1.8,4.7,56,0.00,,,0.00,WUHU216HW,2013-02-25 03:59:00,
2013-02-24 23:04:00,34.4,20.3,30.09,East,90,3.6,3.6,56,0.00,,,0.00,WUHU216HW,2013-02-25 04:04:00,
2013-02-24 23:09:00,34.4,20.3,30.09,ESE,113,1.6,3.6,56,0.00,,,0.00,WUHU216HW,2013-02-25 04:09:00,
2013-02-24 23:15:00,34.2,20.1,30.09,ESE,113,1.6,3.1,56,0.00,,,0.00,WUHU216HW,2013-02-25 04:15:00,
2013-02-24 23:20:00,34.2,20.1,30.09,ESE,113,3.4,3.4,56,0.00,,,0.00,WUHU216HW,2013-02-25 04:20:00,
2013-02-24 23:25:00,34.2,20.1,30.08,SW,225,4.7,4.7,56,0.00,,,0.00,WUHU216HW,2013-02-25 04:25:00,
2013-02-24 23:30:00,34.2,20.1,30.09,SSE,158,1.3,4.7,56,0.00,,,0.00,WUHU216HW,2013-02-25 04:30:00,
2013-02-24 23:35:00,34.2,20.1,30.09,ESE,113,1.8,4.0,56,0.00,,,0.00,WUHU216HW,2013-02-25 04:35:00,
2013-02-24 23:40:00,34.2,20.1,30.09,ESE,113,1.1,2.5,56,0.00,,,0.00,WUHU216HW,2013-02-25 04:40:00,
2013-02-24 23:45:00,34.2,20.1,30.09,SSE,158,2.2,3.4,56,0.00,,,0.00,WUHU216HW,2013-02-25 04:45:00,
2013-02-24 23:50:00,34.0,19.9,30.09,ESE,113,1.3,3.4,56,0.00,,,0.00,WUHU216HW,2013-02-25 04:50:00,
2013-02-24 23:55:00,34.0,20.4,30.09,SE,135,2.7,3.1,57,0.00,,,0.00,WUHU216HW,2013-02-25 04:55:00,